Fairchem Aldebaran — D5MP6 — position and weather

sailwx.info

Track history (hours):
 
Tides and Currents Weather Stations Pressure Air Temp Water Temp Dewpoint Dewpoint Depression Visibility Wind Speed Wind Dir Waves Ship Positions

Fairchem Aldebaran

Last reported at 2017-Sep-27 04:54 UTC. Time now 2017-Oct-20 03:29 UTC.
Position N 36°33' E 014°11'.
Warning: this ship's position is 22 days out of date.

Length 146 m; draft 9.5 m.

Type: Tanker. MMSI: 636017765.

Date/timePositionNaut miles runAvg speedWind from/ knotsBaromVisibWave heightAir tempDewpointWater temp
2017-Sep-27 04:54N 36°33' E 014°11'1215.0
2017-Sep-27 04:06N 36°37' E 013°57'114.8
2017-Sep-27 04:00N 36°37' E 013°56'714.7
2017-Sep-27 03:30N 36°40' E 013°47'1114.5
2017-Sep-27 02:43N 36°44' E 013°34'41914.3
2017-Sep-25 21:22N 37°20' E 004°51'514.5
2017-Sep-25 21:01N 37°19' E 004°45'714.6
2017-Sep-25 20:30N 37°19' E 004°35'714.9
2017-Sep-25 20:00N 37°19' E 004°26'815.1
2017-Sep-25 19:30N 37°18' E 004°17'1714.9
2017-Sep-25 18:21N 37°17' E 003°55'514.8
2017-Sep-25 18:00N 37°17' E 003°49'5014.5
2017-Sep-25 14:33N 37°10' E 002°46'514.6
2017-Sep-25 14:14N 37°09' E 002°41'6114.3
2017-Sep-25 09:59N 36°54' E 001°27'714.0
2017-Sep-25 09:28N 36°52' E 001°18'714.1
2017-Sep-25 08:59N 36°51' E 001°10'714.3
2017-Sep-25 08:29N 36°49' E 001°01'714.6
2017-Sep-25 08:00N 36°48' E 000°53'1114.6
2017-Sep-25 07:13N 36°45' E 000°39'314.5
2017-Sep-25 07:00N 36°45' E 000°35'1214.7
2017-Sep-25 06:13N 36°42' E 000°21'314.8
2017-Sep-25 06:00N 36°41' E 000°17'714.7
2017-Sep-25 05:30N 36°39' E 000°08'714.7
2017-Sep-25 05:00N 36°37' W 000°00'814.6
2017-Sep-25 04:28N 36°35' W 000°10'814.5
2017-Sep-25 03:57N 36°33' W 000°19'1214.2
2017-Sep-25 03:05N 36°30' W 000°34'113.9
2017-Sep-25 03:00N 36°30' W 000°35'714.0
2017-Sep-25 02:30N 36°28' W 000°43'1014.2
2017-Sep-25 01:50N 36°26' W 000°55'514.6
2017-Sep-25 01:28N 36°24' W 001°01'20414.6
2017-Sep-24 11:32N 36°00' W 005°12'014.1
2017-Sep-24 11:30N 36°00' W 005°13'714.8
2017-Sep-24 11:01N 35°59' W 005°22'815.7
2017-Sep-24 10:31N 35°57' W 005°31'15713.5
2017-Sep-23 22:51N 36°23' W 008°43'513.8
2017-Sep-23 22:28N 36°24' W 008°49'713.5
2017-Sep-23 21:57N 36°26' W 008°58'613.5
2017-Sep-23 21:30N 36°27' W 009°05'713.7
2017-Sep-23 21:00N 36°29' W 009°13'713.9
2017-Sep-23 20:30N 36°31' W 009°21'714.8
2017-Sep-23 20:00N 36°36' W 009°28'  
2017-Sep-21 04:54N 49°34' W 004°01'511.4
2017-Sep-21 04:30N 49°36' W 003°55'612.0
2017-Sep-21 04:00N 49°39' W 003°47'612.6
2017-Sep-21 03:30N 49°42' W 003°38'713.3
2017-Sep-21 03:00N 49°46' W 003°29'714.1
2017-Sep-21 02:30N 49°49' W 003°20'815.0
2017-Sep-21 02:00N 49°53' W 003°10'815.4
2017-Sep-21 01:30N 49°57' W 002°59'815.5
2017-Sep-21 01:00N 49°59' W 002°48'815.5
2017-Sep-21 00:30N 50°01' W 002°36'1214.7
2017-Sep-20 23:40N 50°04' W 002°18'2012.5
2017-Sep-20 22:06N 50°10' W 001°48'111.1
2017-Sep-20 22:00N 50°10' W 001°47'510.7
2017-Sep-20 21:31N 50°12' W 001°39'510.3
2017-Sep-20 20:59N 50°13' W 001°30'510.0
2017-Sep-20 20:30N 50°14' W 001°23'3611.4
2017-Sep-20 17:18N 50°24' W 000°29'414.2
2017-Sep-20 17:00N 50°25' W 000°22'714.5
2017-Sep-20 16:30N 50°27' W 000°11'714.8
2017-Sep-20 16:00N 50°29' E 000°00'715.0
2017-Sep-20 15:31N 50°31' E 000°11'714.9
2017-Sep-20 15:01N 50°33' E 000°23'1414.1
2017-Sep-20 14:01N 50°38' E 000°43'713.6
2017-Sep-20 13:31N 50°42' E 000°52'612.8
2017-Sep-20 13:01N 50°46' E 001°01'712.0
2017-Sep-20 12:26N 50°49' E 001°10'511.4
2017-Sep-20 11:58N 50°53' E 001°16'510.9
2017-Sep-20 11:31N 50°57' E 001°21'611.4
2017-Sep-20 11:01N 51°01' E 001°27'612.6
2017-Sep-20 10:31N 51°05' E 001°35'713.1
2017-Sep-20 10:00N 51°10' E 001°42'714.5
2017-Sep-20 09:30N 51°16' E 001°49'815.7
2017-Sep-20 09:00N 51°22' E 001°56'816.1
2017-Sep-20 08:30N 51°29' E 002°03'816.1
2017-Sep-20 08:00N 51°35' E 002°12'915.8
2017-Sep-20 07:27N 51°41' E 002°21'5413.2
2017-Sep-20 03:19N 52°04' E 003°41'411.7
2017-Sep-20 03:00N 52°03' E 003°47'5 9.9
2017-Sep-20 02:31N 52°03' E 003°55'4 8.1
2017-Sep-20 02:01N 52°00' E 003°60'5 9.8
2017-Sep-20 01:31N 51°59' E 004°07'4 8.1
2017-Sep-20 01:01N 51°56' E 004°12'5 9.2
2017-Sep-20 00:31N 51°53' E 004°18'1 1.2
2017-Sep-19 23:59N 51°53' E 004°18'0 0.0
2017-Sep-19 23:29N 51°53' E 004°18'0 0.0
2017-Sep-19 22:59N 51°53' E 004°18'0 0.0
2017-Sep-19 22:29N 51°53' E 004°18'0 0.0
2017-Sep-19 21:53N 51°53' E 004°18'0 0.0
2017-Sep-19 21:29N 51°53' E 004°18'0 0.0
2017-Sep-19 20:59N 51°53' E 004°18'0 0.0
2017-Sep-19 20:29N 51°53' E 004°18'0 0.0
2017-Sep-19 19:59N 51°53' E 004°18'0 0.0
2017-Sep-19 19:29N 51°53' E 004°18'0 0.0
2017-Sep-19 18:53N 51°53' E 004°18'0 0.0
2017-Sep-19 18:29N 51°53' E 004°18'0 0.0
2017-Sep-19 17:53N 51°53' E 004°18'0 0.0
2017-Sep-19 17:29N 51°53' E 004°18'0 0.0
2017-Sep-19 16:59N 51°53' E 004°18'0 0.0
2017-Sep-19 16:29N 51°53' E 004°18'0 0.0
2017-Sep-19 15:56N 51°53' E 004°18'0 0.0
2017-Sep-19 15:29N 51°53' E 004°18'0 0.0
2017-Sep-19 14:59N 51°53' E 004°18'0 0.0
2017-Sep-19 14:29N 51°53' E 004°18'0 0.0
2017-Sep-19 13:59N 51°53' E 004°18'0 0.0
2017-Sep-19 13:29N 51°53' E 004°18'0 0.0
2017-Sep-19 12:59N 51°53' E 004°18'0 0.0
2017-Sep-19 12:29N 51°53' E 004°18'0 0.0
2017-Sep-19 11:59N 51°53' E 004°18'0 0.0
2017-Sep-19 11:26N 51°53' E 004°18'0 0.0
2017-Sep-19 10:59N 51°53' E 004°18'0 0.0
2017-Sep-19 10:29N 51°53' E 004°18'0 0.0
2017-Sep-19 09:59N 51°53' E 004°18'0 0.0
2017-Sep-19 09:26N 51°53' E 004°18'0 0.0
2017-Sep-19 08:59N 51°53' E 004°18'0 0.0
2017-Sep-19 08:29N 51°53' E 004°18'0 0.0
2017-Sep-19 07:59N 51°53' E 004°18'0 0.0
2017-Sep-19 07:29N 51°53' E 004°18'0 0.0
2017-Sep-19 06:56N 51°53' E 004°18'0 0.0
2017-Sep-19 06:29N 51°53' E 004°18'0 0.0
2017-Sep-19 05:59N 51°53' E 004°18'0 0.0
2017-Sep-19 05:29N 51°53' E 004°18'0 0.0
2017-Sep-19 04:59N 51°53' E 004°18'0 0.0
2017-Sep-19 04:29N 51°53' E 004°18'0 0.0
2017-Sep-19 03:59N 51°53' E 004°18'0 0.0
2017-Sep-19 03:29N 51°53' E 004°18'0 0.0
2017-Sep-19 02:56N 51°53' E 004°18'0 0.0
2017-Sep-19 02:29N 51°53' E 004°18'0 0.0
2017-Sep-19 01:59N 51°53' E 004°18'0 0.0
2017-Sep-19 01:29N 51°53' E 004°18'0 0.0
2017-Sep-19 00:59N 51°53' E 004°18'0 0.0
2017-Sep-19 00:29N 51°53' E 004°18'0 0.0
2017-Sep-18 23:59N 51°53' E 004°18'0 0.0
2017-Sep-18 23:29N 51°53' E 004°18'0 0.0
2017-Sep-18 22:59N 51°53' E 004°18'0 0.0
2017-Sep-18 22:29N 51°53' E 004°18'0 0.0
2017-Sep-18 21:59N 51°53' E 004°18'0 0.0
2017-Sep-18 21:29N 51°53' E 004°18'0 0.0
2017-Sep-18 20:59N 51°53' E 004°18'0 0.0
2017-Sep-18 20:29N 51°53' E 004°18'0 0.0
2017-Sep-18 19:56N 51°53' E 004°18'0 0.0
2017-Sep-18 19:29N 51°53' E 004°18'0 0.0
2017-Sep-18 18:59N 51°53' E 004°18'0 0.0
2017-Sep-18 18:29N 51°53' E 004°18'0 0.0
2017-Sep-18 17:59N 51°53' E 004°18'0 0.0
2017-Sep-18 17:29N 51°53' E 004°18'0 0.0
2017-Sep-18 16:59N 51°53' E 004°18'0 0.0
2017-Sep-18 16:29N 51°53' E 004°18'0 0.0
2017-Sep-18 15:59N 51°53' E 004°18'0 0.0
2017-Sep-18 15:29N 51°53' E 004°18'0 0.0
2017-Sep-18 14:59N 51°53' E 004°18'0 0.0
2017-Sep-18 14:29N 51°53' E 004°18'0 0.0
2017-Sep-18 13:59N 51°53' E 004°18'0 0.0
2017-Sep-18 13:29N 51°53' E 004°18'0 0.0
2017-Sep-18 12:59N 51°53' E 004°18'0 0.0
2017-Sep-18 12:29N 51°53' E 004°18'0 0.0
2017-Sep-18 11:59N 51°53' E 004°18'0 0.0
2017-Sep-18 11:29N 51°53' E 004°18'0 0.0
2017-Sep-18 10:59N 51°53' E 004°18'0 0.0
2017-Sep-18 10:29N 51°53' E 004°18'0 0.0
2017-Sep-18 09:59N 51°53' E 004°18'0 0.0
2017-Sep-18 09:29N 51°53' E 004°18'0 0.0
2017-Sep-18 08:59N 51°53' E 004°18'0 0.0
2017-Sep-18 08:29N 51°53' E 004°18'0 0.0
2017-Sep-18 07:59N 51°53' E 004°18'0 0.0
2017-Sep-18 07:29N 51°53' E 004°18'0 0.0
2017-Sep-18 06:59N 51°53' E 004°18'0 0.0
2017-Sep-18 06:29N 51°53' E 004°18'0 0.0
2017-Sep-18 05:59N 51°53' E 004°18'0 0.0
2017-Sep-18 05:29N 51°53' E 004°18'0 0.0
2017-Sep-18 04:59N 51°53' E 004°18'0 0.0
2017-Sep-18 04:29N 51°53' E 004°18'0 0.0
2017-Sep-18 03:59N 51°53' E 004°18'0 0.0
2017-Sep-18 03:29N 51°53' E 004°18'0 0.0
2017-Sep-18 02:59N 51°53' E 004°18'0 0.0
2017-Sep-18 02:29N 51°53' E 004°18'0 0.0
2017-Sep-18 01:59N 51°53' E 004°18'0 0.0
2017-Sep-18 01:29N 51°53' E 004°18'0 0.0
2017-Sep-18 00:59N 51°53' E 004°18'0 0.0
2017-Sep-18 00:29N 51°53' E 004°18'0 0.0
2017-Sep-17 23:59N 51°53' E 004°18'0 0.0
2017-Sep-17 23:29N 51°53' E 004°18'0 0.0
2017-Sep-17 22:59N 51°53' E 004°18'0 0.0
2017-Sep-17 22:29N 51°53' E 004°18'0 0.0
2017-Sep-17 21:59N 51°53' E 004°18'0 0.0
2017-Sep-17 21:29N 51°53' E 004°18'0 0.0
2017-Sep-17 20:59N 51°53' E 004°18'0 0.0
2017-Sep-17 20:29N 51°53' E 004°18'0 0.0
2017-Sep-17 19:59N 51°53' E 004°18'0 0.0
2017-Sep-17 19:29N 51°53' E 004°18'0 0.0
2017-Sep-17 18:59N 51°53' E 004°18'0 0.0
2017-Sep-17 18:29N 51°53' E 004°18'0 0.0
2017-Sep-17 17:59N 51°53' E 004°18'1 1.9
2017-Sep-17 17:30N 51°54' E 004°18'3 7.0
2017-Sep-17 17:00N 51°56' E 004°13'4 8.3
2017-Sep-17 16:31N 51°58' E 004°08'4 8.6
2017-Sep-17 16:01N 51°60' E 004°01'611.9
2017-Sep-17 15:31N 52°00' E 003°52'510.0
2017-Sep-17 15:00N 51°58' E 003°44'2 4.4
2017-Sep-17 14:30N 51°56' E 003°44'0 0.0
2017-Sep-17 09:59N 51°56' E 003°44'0 0.1
2017-Sep-17 09:29N 51°56' E 003°44'0 0.3
2017-Sep-17 08:59N 51°56' E 003°44'0 0.1
2017-Sep-17 08:29N 51°56' E 003°44'0 0.0
2017-Sep-17 07:59N 51°56' E 003°44'0 0.0
2017-Sep-17 07:26N 51°56' E 003°44'0 0.0
2017-Sep-17 06:59N 51°56' E 003°44'0 0.0
2017-Sep-17 06:29N 51°56' E 003°44'0 0.0
2017-Sep-17 05:59N 51°56' E 003°44'0 0.0
2017-Sep-17 05:29N 51°56' E 003°44'0 0.0
2017-Sep-17 04:59N 51°56' E 003°44'  
Track history (hours):
 
Tides and Currents Weather Stations Pressure Air Temp Water Temp Dewpoint Dewpoint Depression Visibility Wind Speed Wind Dir Waves Ship Positions

Fairchem Aldebaran

Last reported at 2017-Sep-27 04:54 UTC. Time now 2017-Oct-20 03:29 UTC.
Position N 36°33' E 014°11'.
Warning: this ship's position is 22 days out of date.

Length 146 m; draft 9.5 m.

Type: Tanker. MMSI: 636017765.

Date/timePositionNaut miles runAvg speedWind from/ knotsBaromVisibWave heightAir tempDewpointWater temp
2017-Sep-27 04:54N 36°33' E 014°11'1215.0
2017-Sep-27 04:06N 36°37' E 013°57'114.8
2017-Sep-27 04:00N 36°37' E 013°56'714.7
2017-Sep-27 03:30N 36°40' E 013°47'1114.5
2017-Sep-27 02:43N 36°44' E 013°34'41914.3
2017-Sep-25 21:22N 37°20' E 004°51'514.5
2017-Sep-25 21:01N 37°19' E 004°45'714.6
2017-Sep-25 20:30N 37°19' E 004°35'714.9
2017-Sep-25 20:00N 37°19' E 004°26'815.1
2017-Sep-25 19:30N 37°18' E 004°17'1714.9
2017-Sep-25 18:21N 37°17' E 003°55'514.8
2017-Sep-25 18:00N 37°17' E 003°49'5014.5
2017-Sep-25 14:33N 37°10' E 002°46'514.6
2017-Sep-25 14:14N 37°09' E 002°41'6114.3
2017-Sep-25 09:59N 36°54' E 001°27'714.0
2017-Sep-25 09:28N 36°52' E 001°18'714.1
2017-Sep-25 08:59N 36°51' E 001°10'714.3
2017-Sep-25 08:29N 36°49' E 001°01'714.6
2017-Sep-25 08:00N 36°48' E 000°53'1114.6
2017-Sep-25 07:13N 36°45' E 000°39'314.5
2017-Sep-25 07:00N 36°45' E 000°35'1214.7
2017-Sep-25 06:13N 36°42' E 000°21'314.8
2017-Sep-25 06:00N 36°41' E 000°17'714.7
2017-Sep-25 05:30N 36°39' E 000°08'714.7
2017-Sep-25 05:00N 36°37' W 000°00'814.6
2017-Sep-25 04:28N 36°35' W 000°10'814.5
2017-Sep-25 03:57N 36°33' W 000°19'1214.2
2017-Sep-25 03:05N 36°30' W 000°34'113.9
2017-Sep-25 03:00N 36°30' W 000°35'714.0
2017-Sep-25 02:30N 36°28' W 000°43'1014.2
2017-Sep-25 01:50N 36°26' W 000°55'514.6
2017-Sep-25 01:28N 36°24' W 001°01'20414.6
2017-Sep-24 11:32N 36°00' W 005°12'014.1
2017-Sep-24 11:30N 36°00' W 005°13'714.8
2017-Sep-24 11:01N 35°59' W 005°22'815.7
2017-Sep-24 10:31N 35°57' W 005°31'15713.5
2017-Sep-23 22:51N 36°23' W 008°43'513.8
2017-Sep-23 22:28N 36°24' W 008°49'713.5
2017-Sep-23 21:57N 36°26' W 008°58'613.5
2017-Sep-23 21:30N 36°27' W 009°05'713.7
2017-Sep-23 21:00N 36°29' W 009°13'713.9
2017-Sep-23 20:30N 36°31' W 009°21'714.8
2017-Sep-23 20:00N 36°36' W 009°28'  
2017-Sep-21 04:54N 49°34' W 004°01'511.4
2017-Sep-21 04:30N 49°36' W 003°55'612.0
2017-Sep-21 04:00N 49°39' W 003°47'612.6
2017-Sep-21 03:30N 49°42' W 003°38'713.3
2017-Sep-21 03:00N 49°46' W 003°29'714.1
2017-Sep-21 02:30N 49°49' W 003°20'815.0
2017-Sep-21 02:00N 49°53' W 003°10'815.4
2017-Sep-21 01:30N 49°57' W 002°59'815.5
2017-Sep-21 01:00N 49°59' W 002°48'815.5
2017-Sep-21 00:30N 50°01' W 002°36'1214.7
2017-Sep-20 23:40N 50°04' W 002°18'2012.5
2017-Sep-20 22:06N 50°10' W 001°48'111.1
2017-Sep-20 22:00N 50°10' W 001°47'510.7
2017-Sep-20 21:31N 50°12' W 001°39'510.3
2017-Sep-20 20:59N 50°13' W 001°30'510.0
2017-Sep-20 20:30N 50°14' W 001°23'3611.4
2017-Sep-20 17:18N 50°24' W 000°29'414.2
2017-Sep-20 17:00N 50°25' W 000°22'714.5
2017-Sep-20 16:30N 50°27' W 000°11'714.8
2017-Sep-20 16:00N 50°29' E 000°00'715.0
2017-Sep-20 15:31N 50°31' E 000°11'714.9
2017-Sep-20 15:01N 50°33' E 000°23'1414.1
2017-Sep-20 14:01N 50°38' E 000°43'713.6
2017-Sep-20 13:31N 50°42' E 000°52'612.8
2017-Sep-20 13:01N 50°46' E 001°01'712.0
2017-Sep-20 12:26N 50°49' E 001°10'511.4
2017-Sep-20 11:58N 50°53' E 001°16'510.9
2017-Sep-20 11:31N 50°57' E 001°21'611.4
2017-Sep-20 11:01N 51°01' E 001°27'612.6
2017-Sep-20 10:31N 51°05' E 001°35'713.1
2017-Sep-20 10:00N 51°10' E 001°42'714.5
2017-Sep-20 09:30N 51°16' E 001°49'815.7
2017-Sep-20 09:00N 51°22' E 001°56'816.1
2017-Sep-20 08:30N 51°29' E 002°03'816.1
2017-Sep-20 08:00N 51°35' E 002°12'915.8
2017-Sep-20 07:27N 51°41' E 002°21'5413.2
2017-Sep-20 03:19N 52°04' E 003°41'411.7
2017-Sep-20 03:00N 52°03' E 003°47'5 9.9
2017-Sep-20 02:31N 52°03' E 003°55'4 8.1
2017-Sep-20 02:01N 52°00' E 003°60'5 9.8
2017-Sep-20 01:31N 51°59' E 004°07'4 8.1
2017-Sep-20 01:01N 51°56' E 004°12'5 9.2
2017-Sep-20 00:31N 51°53' E 004°18'1 1.2
2017-Sep-19 23:59N 51°53' E 004°18'0 0.0
2017-Sep-19 23:29N 51°53' E 004°18'0 0.0
2017-Sep-19 22:59N 51°53' E 004°18'0 0.0
2017-Sep-19 22:29N 51°53' E 004°18'0 0.0
2017-Sep-19 21:53N 51°53' E 004°18'0 0.0
2017-Sep-19 21:29N 51°53' E 004°18'0 0.0
2017-Sep-19 20:59N 51°53' E 004°18'0 0.0
2017-Sep-19 20:29N 51°53' E 004°18'0 0.0
2017-Sep-19 19:59N 51°53' E 004°18'0 0.0
2017-Sep-19 19:29N 51°53' E 004°18'0 0.0
2017-Sep-19 18:53N 51°53' E 004°18'0 0.0
2017-Sep-19 18:29N 51°53' E 004°18'0 0.0
2017-Sep-19 17:53N 51°53' E 004°18'0 0.0
2017-Sep-19 17:29N 51°53' E 004°18'0 0.0
2017-Sep-19 16:59N 51°53' E 004°18'0 0.0
2017-Sep-19 16:29N 51°53' E 004°18'0 0.0
2017-Sep-19 15:56N 51°53' E 004°18'0 0.0
2017-Sep-19 15:29N 51°53' E 004°18'0 0.0
2017-Sep-19 14:59N 51°53' E 004°18'0 0.0
2017-Sep-19 14:29N 51°53' E 004°18'0 0.0
2017-Sep-19 13:59N 51°53' E 004°18'0 0.0
2017-Sep-19 13:29N 51°53' E 004°18'0 0.0
2017-Sep-19 12:59N 51°53' E 004°18'0 0.0
2017-Sep-19 12:29N 51°53' E 004°18'0 0.0
2017-Sep-19 11:59N 51°53' E 004°18'0 0.0
2017-Sep-19 11:26N 51°53' E 004°18'0 0.0
2017-Sep-19 10:59N 51°53' E 004°18'0 0.0
2017-Sep-19 10:29N 51°53' E 004°18'0 0.0
2017-Sep-19 09:59N 51°53' E 004°18'0 0.0
2017-Sep-19 09:26N 51°53' E 004°18'0 0.0
2017-Sep-19 08:59N 51°53' E 004°18'0 0.0
2017-Sep-19 08:29N 51°53' E 004°18'0 0.0
2017-Sep-19 07:59N 51°53' E 004°18'0 0.0
2017-Sep-19 07:29N 51°53' E 004°18'0 0.0
2017-Sep-19 06:56N 51°53' E 004°18'0 0.0
2017-Sep-19 06:29N 51°53' E 004°18'0 0.0
2017-Sep-19 05:59N 51°53' E 004°18'0 0.0
2017-Sep-19 05:29N 51°53' E 004°18'0 0.0
2017-Sep-19 04:59N 51°53' E 004°18'0 0.0
2017-Sep-19 04:29N 51°53' E 004°18'0 0.0
2017-Sep-19 03:59N 51°53' E 004°18'0 0.0
2017-Sep-19 03:29N 51°53' E 004°18'0 0.0
2017-Sep-19 02:56N 51°53' E 004°18'0 0.0
2017-Sep-19 02:29N 51°53' E 004°18'0 0.0
2017-Sep-19 01:59N 51°53' E 004°18'0 0.0
2017-Sep-19 01:29N 51°53' E 004°18'0 0.0
2017-Sep-19 00:59N 51°53' E 004°18'0 0.0
2017-Sep-19 00:29N 51°53' E 004°18'0 0.0
2017-Sep-18 23:59N 51°53' E 004°18'0 0.0
2017-Sep-18 23:29N 51°53' E 004°18'0 0.0
2017-Sep-18 22:59N 51°53' E 004°18'0 0.0
2017-Sep-18 22:29N 51°53' E 004°18'0 0.0
2017-Sep-18 21:59N 51°53' E 004°18'0 0.0
2017-Sep-18 21:29N 51°53' E 004°18'0 0.0
2017-Sep-18 20:59N 51°53' E 004°18'0 0.0
2017-Sep-18 20:29N 51°53' E 004°18'0 0.0
2017-Sep-18 19:56N 51°53' E 004°18'0 0.0
2017-Sep-18 19:29N 51°53' E 004°18'0 0.0
2017-Sep-18 18:59N 51°53' E 004°18'0 0.0
2017-Sep-18 18:29N 51°53' E 004°18'0 0.0
2017-Sep-18 17:59N 51°53' E 004°18'0 0.0
2017-Sep-18 17:29N 51°53' E 004°18'0 0.0
2017-Sep-18 16:59N 51°53' E 004°18'0 0.0
2017-Sep-18 16:29N 51°53' E 004°18'0 0.0
2017-Sep-18 15:59N 51°53' E 004°18'0 0.0
2017-Sep-18 15:29N 51°53' E 004°18'0 0.0
2017-Sep-18 14:59N 51°53' E 004°18'0 0.0
2017-Sep-18 14:29N 51°53' E 004°18'0 0.0
2017-Sep-18 13:59N 51°53' E 004°18'0 0.0
2017-Sep-18 13:29N 51°53' E 004°18'0 0.0
2017-Sep-18 12:59N 51°53' E 004°18'0 0.0
2017-Sep-18 12:29N 51°53' E 004°18'0 0.0
2017-Sep-18 11:59N 51°53' E 004°18'0 0.0
2017-Sep-18 11:29N 51°53' E 004°18'0 0.0
2017-Sep-18 10:59N 51°53' E 004°18'0 0.0
2017-Sep-18 10:29N 51°53' E 004°18'0 0.0
2017-Sep-18 09:59N 51°53' E 004°18'0 0.0
2017-Sep-18 09:29N 51°53' E 004°18'0 0.0
2017-Sep-18 08:59N 51°53' E 004°18'0 0.0
2017-Sep-18 08:29N 51°53' E 004°18'0 0.0
2017-Sep-18 07:59N 51°53' E 004°18'0 0.0
2017-Sep-18 07:29N 51°53' E 004°18'0 0.0
2017-Sep-18 06:59N 51°53' E 004°18'0 0.0
2017-Sep-18 06:29N 51°53' E 004°18'0 0.0
2017-Sep-18 05:59N 51°53' E 004°18'0 0.0
2017-Sep-18 05:29N 51°53' E 004°18'0 0.0
2017-Sep-18 04:59N 51°53' E 004°18'0 0.0
2017-Sep-18 04:29N 51°53' E 004°18'0 0.0
2017-Sep-18 03:59N 51°53' E 004°18'0 0.0
2017-Sep-18 03:29N 51°53' E 004°18'0 0.0
2017-Sep-18 02:59N 51°53' E 004°18'0 0.0
2017-Sep-18 02:29N 51°53' E 004°18'0 0.0
2017-Sep-18 01:59N 51°53' E 004°18'0 0.0
2017-Sep-18 01:29N 51°53' E 004°18'0 0.0
2017-Sep-18 00:59N 51°53' E 004°18'0 0.0
2017-Sep-18 00:29N 51°53' E 004°18'0 0.0
2017-Sep-17 23:59N 51°53' E 004°18'0 0.0
2017-Sep-17 23:29N 51°53' E 004°18'0 0.0
2017-Sep-17 22:59N 51°53' E 004°18'0 0.0
2017-Sep-17 22:29N 51°53' E 004°18'0 0.0
2017-Sep-17 21:59N 51°53' E 004°18'0 0.0
2017-Sep-17 21:29N 51°53' E 004°18'0 0.0
2017-Sep-17 20:59N 51°53' E 004°18'0 0.0
2017-Sep-17 20:29N 51°53' E 004°18'0 0.0
2017-Sep-17 19:59N 51°53' E 004°18'0 0.0
2017-Sep-17 19:29N 51°53' E 004°18'0 0.0
2017-Sep-17 18:59N 51°53' E 004°18'0 0.0
2017-Sep-17 18:29N 51°53' E 004°18'0 0.0
2017-Sep-17 17:59N 51°53' E 004°18'1 1.9
2017-Sep-17 17:30N 51°54' E 004°18'3 7.0
2017-Sep-17 17:00N 51°56' E 004°13'4 8.3
2017-Sep-17 16:31N 51°58' E 004°08'4 8.6
2017-Sep-17 16:01N 51°60' E 004°01'611.9
2017-Sep-17 15:31N 52°00' E 003°52'510.0
2017-Sep-17 15:00N 51°58' E 003°44'2 4.4
2017-Sep-17 14:30N 51°56' E 003°44'0 0.0
2017-Sep-17 09:59N 51°56' E 003°44'0 0.1
2017-Sep-17 09:29N 51°56' E 003°44'0 0.3
2017-Sep-17 08:59N 51°56' E 003°44'0 0.1
2017-Sep-17 08:29N 51°56' E 003°44'0 0.0
2017-Sep-17 07:59N 51°56' E 003°44'0 0.0
2017-Sep-17 07:26N 51°56' E 003°44'0 0.0
2017-Sep-17 06:59N 51°56' E 003°44'0 0.0
2017-Sep-17 06:29N 51°56' E 003°44'0 0.0
2017-Sep-17 05:59N 51°56' E 003°44'0 0.0
2017-Sep-17 05:29N 51°56' E 003°44'0 0.0
2017-Sep-17 04:59N 51°56' E 003°44'  

Dump ship's entire track history